Time;durP1;ratioP1;P1;durP2;ratioP2;P2;SDS_P1;SDS_P2;PMS_P1;PMS_P2;Temp;Humidity;BMP_temperature;BMP_pressure;BME280_temperature;BME280_humidity;BME280_pressure;Samples;Min_cycle;Max_cycle;Signal;HPM_P1;HPM_P2
2023/10/28 00:02:07;;;;;;;6.78;2.95;;;;;;;;;;6245372;23;20024;-77
2023/10/28 00:04:38;;;;;;;8.48;3.40;;;;;;;;;;6245505;23;20012;-78
2023/10/28 00:07:09;;;;;;;9.02;3.53;;;;;;;;;;6255714;23;20011;-77
2023/10/28 00:09:40;;;;;;;9.52;3.90;;;;;;;;;;6245996;23;20012;-77
2023/10/28 00:12:13;;;;;;;6.22;2.65;;;;;;;;;;6218563;23;20019;-77
2023/10/28 00:14:44;;;;;;;7.80;2.85;;;;;;;;;;6255524;23;20331;-78
2023/10/28 00:17:17;;;;;;;10.07;3.88;;;;;;;;;;6256313;23;20004;-78
2023/10/28 00:19:48;;;;;;;11.50;4.28;;;;;;;;;;6255729;23;20011;-77
2023/10/28 00:22:19;;;;;;;12.93;3.67;;;;;;;;;;6254799;23;20331;-77
2023/10/28 00:24:49;;;;;;;8.75;3.55;;;;;;;;;;6244992;23;20435;-77
2023/10/28 00:27:19;;;;;;;13.20;4.68;;;;;;;;;;6218740;23;20023;-77
2023/10/28 00:29:52;;;;;;;10.52;3.95;;;;;;;;;;6218908;23;20339;-77
2023/10/28 00:32:22;;;;;;;11.05;4.15;;;;;;;;;;6254522;23;20011;-77
2023/10/28 00:34:53;;;;;;;10.07;3.80;;;;;;;;;;6245359;23;20015;-78
2023/10/28 00:37:24;;;;;;;10.13;4.60;;;;;;;;;;6255267;23;20015;-77
2023/10/28 00:39:55;;;;;;;10.18;3.83;;;;;;;;;;6245016;23;20012;-77
2023/10/28 00:42:26;;;;;;;8.70;3.50;;;;;;;;;;6251915;23;20031;-76
2023/10/28 00:44:57;;;;;;;8.98;2.75;;;;;;;;;;6229601;23;20012;-77
2023/10/28 00:47:27;;;;;;;8.73;3.15;;;;;;;;;;6216754;23;20012;-76
2023/10/28 00:49:58;;;;;;;8.02;3.20;;;;;;;;;;6245340;23;20016;-77
2023/10/28 00:52:28;;;;;;;8.07;2.72;;;;;;;;;;6254990;23;20011;-77
2023/10/28 00:54:59;;;;;;;8.05;2.90;;;;;;;;;;6255548;23;20004;-76
2023/10/28 00:57:31;;;;;;;10.20;3.15;;;;;;;;;;6244044;23;20012;-78
2023/10/28 01:00:01;;;;;;;8.80;3.17;;;;;;;;;;6255190;23;20008;-77
2023/10/28 01:03:17;;;;;;;8.35;3.30;;;;;;;;;;6253743;23;20015;-78
2023/10/28 01:05:48;;;;;;;8.98;3.08;;;;;;;;;;6243891;23;20016;-77
2023/10/28 01:08:18;;;;;;;11.30;3.00;;;;;;;;;;6254578;23;20447;-78
2023/10/28 01:10:51;;;;;;;9.65;2.78;;;;;;;;;;6250291;23;20015;-77
2023/10/28 01:17:53;;;;;;;10.18;3.45;;;;;;;;;;6147191;23;20022;-77
2023/10/28 01:20:50;;;;;;;8.13;3.30;;;;;;;;;;6150685;23;20014;-78
2023/10/28 01:23:46;;;;;;;7.38;2.72;;;;;;;;;;6138624;23;20024;-77
2023/10/28 01:26:41;;;;;;;11.07;3.13;;;;;;;;;;6124396;23;20010;-77
2023/10/28 01:29:41;;;;;;;8.77;3.00;;;;;;;;;;6123663;23;20010;-77
2023/10/28 01:32:14;;;;;;;8.65;3.28;;;;;;;;;;6097458;23;20014;-78
2023/10/28 01:35:25;;;;;;;8.50;2.83;;;;;;;;;;6120786;23;20014;-78
2023/10/28 01:38:23;;;;;;;9.40;2.95;;;;;;;;;;6040324;23;20011;-77
2023/10/28 01:41:24;;;;;;;6.78;2.85;;;;;;;;;;6034043;23;20019;-77
2023/10/28 01:43:55;;;;;;;11.48;3.47;;;;;;;;;;6035524;23;20035;-77
2023/10/28 01:46:25;;;;;;;6.82;3.10;;;;;;;;;;6035562;23;20023;-77
2023/10/28 01:48:58;;;;;;;8.10;3.10;;;;;;;;;;6086541;23;20025;-76
2023/10/28 01:51:32;;;;;;;8.00;3.40;;;;;;;;;;6131752;23;20018;-78
2023/10/28 01:54:05;;;;;;;8.70;2.75;;;;;;;;;;6168193;23;20008;-77
2023/10/28 01:56:40;;;;;;;13.25;3.58;;;;;;;;;;6216356;23;20031;-78
2023/10/28 02:03:00;;;;;;;8.70;3.03;;;;;;;;;;6244390;23;20020;-78
2023/10/28 02:05:31;;;;;;;10.52;3.10;;;;;;;;;;6254601;23;20004;-77
2023/10/28 02:08:08;;;;;;;7.85;3.25;;;;;;;;;;6244981;23;20004;-78
2023/10/28 02:14:15;;;;;;;6.53;3.15;;;;;;;;;;6217250;23;20454;-78
2023/10/28 02:17:15;;;;;;;9.32;3.80;;;;;;;;;;6243663;23;20012;-78
2023/10/28 02:19:46;;;;;;;7.75;2.55;;;;;;;;;;6218503;23;20012;-77
2023/10/28 02:22:17;;;;;;;13.18;3.22;;;;;;;;;;6219128;23;20016;-77
2023/10/28 02:24:50;;;;;;;8.02;3.40;;;;;;;;;;6246695;23;20011;-77
2023/10/28 02:27:20;;;;;;;14.77;3.10;;;;;;;;;;6256949;23;20323;-77
2023/10/28 02:29:51;;;;;;;7.65;2.78;;;;;;;;;;6194597;23;20635;-77
2023/10/28 02:32:24;;;;;;;9.55;2.80;;;;;;;;;;6218826;23;20024;-77
2023/10/28 02:34:59;;;;;;;11.55;2.90;;;;;;;;;;6256043;23;20015;-77
2023/10/28 02:37:36;;;;;;;8.88;3.00;;;;;;;;;;6256258;23;20004;-77
2023/10/28 02:40:13;;;;;;;10.40;2.85;;;;;;;;;;6256948;23;20301;-78
2023/10/28 02:42:47;;;;;;;6.75;2.90;;;;;;;;;;6217903;23;20335;-78
2023/10/28 02:45:17;;;;;;;8.63;3.33;;;;;;;;;;6256338;23;20004;-77
2023/10/28 02:47:59;;;;;;;9.75;3.47;;;;;;;;;;6152693;23;20029;-78
2023/10/28 02:50:37;;;;;;;10.90;3.45;;;;;;;;;;6152804;23;20014;-77
2023/10/28 02:53:10;;;;;;;8.35;3.33;;;;;;;;;;6156687;23;20523;-77
2023/10/28 02:55:49;;;;;;;6.40;2.72;;;;;;;;;;6127173;23;20013;-75
2023/10/28 02:58:30;;;;;;;5.13;2.22;;;;;;;;;;6162069;23;20009;-76
2023/10/28 03:01:47;;;;;;;7.28;3.53;;;;;;;;;;6162428;23;20461;-76
2023/10/28 03:04:21;;;;;;;8.95;3.50;;;;;;;;;;6138730;23;20020;-76
2023/10/28 03:07:16;;;;;;;7.20;2.75;;;;;;;;;;6152480;23;20013;-77
2023/10/28 03:14:26;;;;;;;8.40;3.42;;;;;;;;;;5959809;24;20020;-78
2023/10/28 03:16:59;;;;;;;8.40;2.95;;;;;;;;;;5972033;23;20346;-79
2023/10/28 03:20:48;;;;;;;7.63;3.10;;;;;;;;;;6038954;23;20454;-78
2023/10/28 03:23:38;;;;;;;11.75;3.03;;;;;;;;;;5940188;24;20023;-79
2023/10/28 03:26:33;;;;;;;7.13;3.47;;;;;;;;;;6046214;23;20015;-78
2023/10/28 03:29:06;;;;;;;7.10;3.45;;;;;;;;;;6064916;23;20123;-78
2023/10/28 03:31:36;;;;;;;8.35;3.50;;;;;;;;;;6087460;23;20015;-78
2023/10/28 03:38:44;;;;;;;7.00;3.20;;;;;;;;;;6043877;23;20153;-77
2023/10/28 03:41:14;;;;;;;;;;;;;;;;;;6040757;23;20059;-78
2023/10/28 03:43:45;;;;;;;8.38;2.85;;;;;;;;;;6036250;23;20349;-78
2023/10/28 03:46:20;;;;;;;8.27;3.20;;;;;;;;;;6065039;23;20015;-78
2023/10/28 03:48:51;;;;;;;7.68;3.47;;;;;;;;;;6221846;23;20363;-78
2023/10/28 03:51:20;;;;;;;9.88;3.40;;;;;;;;;;6213355;23;20459;-77
2023/10/28 03:53:50;;;;;;;9.38;4.07;;;;;;;;;;6213922;23;20332;-78
2023/10/28 03:56:21;;;;;;;7.60;3.78;;;;;;;;;;6214506;23;20013;-78
2023/10/28 03:58:51;;;;;;;9.73;3.53;;;;;;;;;;6213674;23;20047;-78
2023/10/28 04:01:22;;;;;;;9.68;3.50;;;;;;;;;;6214525;23;20522;-78
2023/10/28 04:03:55;;;;;;;9.02;3.88;;;;;;;;;;6214044;23;20015;-78
2023/10/28 04:06:25;;;;;;;7.22;3.47;;;;;;;;;;6224012;23;20544;-78
2023/10/28 04:08:55;;;;;;;10.68;3.20;;;;;;;;;;6226464;23;20020;-77
2023/10/28 04:11:26;;;;;;;10.70;3.63;;;;;;;;;;6256973;23;20008;-77
2023/10/28 04:13:56;;;;;;;9.65;3.30;;;;;;;;;;6246740;23;20020;-77
2023/10/28 04:16:26;;;;;;;10.27;3.17;;;;;;;;;;6246763;23;20016;-78
2023/10/28 04:18:56;;;;;;;9.45;3.72;;;;;;;;;;6246746;23;20012;-78
2023/10/28 04:21:26;;;;;;;8.57;3.50;;;;;;;;;;6246233;23;20005;-77
2023/10/28 04:23:56;;;;;;;11.40;4.05;;;;;;;;;;6246795;23;20023;-77
2023/10/28 04:26:25;;;;;;;9.43;3.67;;;;;;;;;;6246151;23;20462;-75
2023/10/28 04:29:00;;;;;;;8.23;3.33;;;;;;;;;;6256897;23;20060;-76
2023/10/28 04:31:31;;;;;;;9.25;3.30;;;;;;;;;;6256794;23;20004;-77
2023/10/28 04:34:02;;;;;;;9.30;3.45;;;;;;;;;;6246899;23;20012;-76
2023/10/28 04:36:33;;;;;;;9.82;3.90;;;;;;;;;;6257071;23;20311;-75
2023/10/28 04:39:03;;;;;;;8.18;3.35;;;;;;;;;;6246160;23;20011;-76
2023/10/28 04:41:33;;;;;;;9.43;2.90;;;;;;;;;;6246194;23;20012;-76
2023/10/28 04:44:04;;;;;;;6.32;3.17;;;;;;;;;;6246401;23;20012;-76
2023/10/28 04:46:34;;;;;;;8.38;3.13;;;;;;;;;;6245265;23;20035;-77
2023/10/28 04:49:04;;;;;;;5.55;2.17;;;;;;;;;;6246060;23;20012;-76
2023/10/28 04:51:34;;;;;;;9.48;3.10;;;;;;;;;;6245797;23;20016;-76
2023/10/28 04:54:06;;;;;;;12.60;3.25;;;;;;;;;;6257418;23;20004;-77
2023/10/28 04:56:37;;;;;;;7.57;3.05;;;;;;;;;;6247063;23;20016;-77
2023/10/28 04:59:07;;;;;;;6.55;2.92;;;;;;;;;;6221023;23;20118;-76
2023/10/28 05:01:39;;;;;;;9.60;2.85;;;;;;;;;;6256761;23;20004;-77
2023/10/28 05:04:10;;;;;;;10.40;3.30;;;;;;;;;;6245834;23;20012;-78
2023/10/28 05:06:40;;;;;;;6.80;3.25;;;;;;;;;;6245804;23;20012;-78
2023/10/28 05:09:10;;;;;;;7.35;3.35;;;;;;;;;;6246596;23;20422;-78
2023/10/28 05:11:40;;;;;;;5.93;2.42;;;;;;;;;;6245935;23;20012;-77
2023/10/28 05:14:11;;;;;;;8.25;2.50;;;;;;;;;;6245664;23;20349;-77
2023/10/28 05:16:41;;;;;;;4.72;2.33;;;;;;;;;;6255961;23;20015;-78
2023/10/28 05:19:12;;;;;;;7.40;2.72;;;;;;;;;;6246809;23;20023;-78
2023/10/28 05:21:41;;;;;;;7.10;2.47;;;;;;;;;;6246753;23;20022;-77
2023/10/28 05:24:11;;;;;;;6.53;2.40;;;;;;;;;;6245648;23;20019;-77
2023/10/28 05:26:43;;;;;;;6.47;2.03;;;;;;;;;;6246349;23;20023;-78
2023/10/28 05:29:13;;;;;;;5.70;2.40;;;;;;;;;;6256786;23;20004;-77
2023/10/28 05:31:44;;;;;;;6.75;1.98;;;;;;;;;;6245719;23;20008;-78
2023/10/28 05:34:13;;;;;;;7.22;2.55;;;;;;;;;;6246261;23;20008;-77
2023/10/28 05:36:43;;;;;;;6.80;2.15;;;;;;;;;;6246620;23;20012;-78
2023/10/28 05:39:13;;;;;;;4.95;2.28;;;;;;;;;;6245310;23;20019;-77
2023/10/28 05:41:43;;;;;;;7.80;2.42;;;;;;;;;;6245087;23;20016;-78
2023/10/28 05:44:14;;;;;;;5.47;2.67;;;;;;;;;;6256495;23;20019;-77
2023/10/28 05:46:45;;;;;;;5.28;2.22;;;;;;;;;;6256091;23;20012;-77
2023/10/28 05:49:15;;;;;;;6.72;2.35;;;;;;;;;;6218045;23;20076;-77
2023/10/28 05:51:45;;;;;;;8.32;2.45;;;;;;;;;;6246579;23;20015;-77
2023/10/28 05:54:15;;;;;;;4.50;2.00;;;;;;;;;;6247403;23;20012;-77
2023/10/28 05:56:46;;;;;;;8.73;2.95;;;;;;;;;;6247746;23;20028;-77
2023/10/28 05:59:16;;;;;;;6.40;2.90;;;;;;;;;;6248032;23;20012;-77
2023/10/28 06:01:46;;;;;;;7.57;3.00;;;;;;;;;;6248067;23;20015;-76
2023/10/28 06:04:16;;;;;;;7.20;2.78;;;;;;;;;;6247327;23;20012;-77
2023/10/28 06:06:46;;;;;;;7.45;3.25;;;;;;;;;;6247650;23;20327;-75
2023/10/28 06:09:16;;;;;;;8.18;3.17;;;;;;;;;;6248241;23;20008;-75
2023/10/28 06:11:47;;;;;;;9.90;3.40;;;;;;;;;;6221150;23;20038;-76
2023/10/28 06:14:17;;;;;;;6.80;2.63;;;;;;;;;;6248479;23;20019;-76
2023/10/28 06:16:47;;;;;;;7.15;3.15;;;;;;;;;;6247535;23;20023;-76
2023/10/28 06:19:21;;;;;;;7.40;2.80;;;;;;;;;;6247178;23;20004;-76
2023/10/28 06:21:51;;;;;;;9.70;2.83;;;;;;;;;;6258238;23;20311;-77
2023/10/28 06:24:24;;;;;;;8.07;3.35;;;;;;;;;;6257534;23;20012;-76
2023/10/28 06:26:57;;;;;;;8.13;2.60;;;;;;;;;;6258323;23;20005;-77
2023/10/28 06:29:28;;;;;;;8.38;2.95;;;;;;;;;;6257935;23;20019;-75
2023/10/28 06:31:58;;;;;;;7.28;3.00;;;;;;;;;;6247769;23;20023;-76
2023/10/28 06:34:30;;;;;;;8.40;3.47;;;;;;;;;;6257703;23;20004;-76
2023/10/28 06:37:01;;;;;;;6.88;3.20;;;;;;;;;;6247254;23;20446;-77
2023/10/28 06:39:34;;;;;;;8.82;3.20;;;;;;;;;;6247055;23;20012;-77
2023/10/28 06:42:04;;;;;;;6.97;2.47;;;;;;;;;;6255524;23;20008;-77
2023/10/28 06:44:36;;;;;;;9.35;3.33;;;;;;;;;;6258009;23;20016;-76
2023/10/28 06:47:07;;;;;;;12.73;3.42;;;;;;;;;;6219430;23;20430;-76
2023/10/28 06:49:41;;;;;;;8.98;3.22;;;;;;;;;;6256993;23;20434;-76
2023/10/28 06:52:13;;;;;;;;;;;;;;;;;;6258275;23;20004;-76
2023/10/28 06:54:43;;;;;;;8.65;3.00;;;;;;;;;;6257455;23;19919;-75
2023/10/28 06:57:13;;;;;;;7.35;2.90;;;;;;;;;;6259701;23;20019;-75
2023/10/28 06:59:43;;;;;;;7.95;3.20;;;;;;;;;;6261008;23;20014;-77
2023/10/28 07:02:15;;;;;;;8.05;3.08;;;;;;;;;;6268074;23;20004;-77
2023/10/28 07:04:45;;;;;;;8.30;3.20;;;;;;;;;;6254589;23;20013;-76
2023/10/28 07:07:15;;;;;;;6.88;3.13;;;;;;;;;;6249064;23;20024;-77
2023/10/28 07:09:46;;;;;;;8.45;3.08;;;;;;;;;;6258407;23;20016;-76
2023/10/28 07:12:18;;;;;;;6.57;2.78;;;;;;;;;;6257841;23;20056;-76
2023/10/28 07:14:49;;;;;;;6.65;2.80;;;;;;;;;;6258291;23;20015;-75
2023/10/28 07:17:19;;;;;;;10.30;3.30;;;;;;;;;;6247078;23;20011;-75
2023/10/28 07:19:49;;;;;;;8.55;3.25;;;;;;;;;;6246853;23;20435;-75
2023/10/28 07:22:25;;;;;;;6.88;2.42;;;;;;;;;;6257574;23;20004;-76
2023/10/28 07:24:56;;;;;;;6.18;2.22;;;;;;;;;;6257156;23;20439;-76
2023/10/28 07:27:27;;;;;;;14.68;3.10;;;;;;;;;;6247136;23;20023;-75
2023/10/28 07:29:59;;;;;;;6.43;2.50;;;;;;;;;;6257229;23;20004;-76
2023/10/28 07:32:30;;;;;;;3.33;1.30;;;;;;;;;;6257342;23;20011;-74
2023/10/28 07:35:02;;;;;;;5.57;1.75;;;;;;;;;;6257107;23;20011;-75
2023/10/28 07:37:32;;;;;;;4.70;1.63;;;;;;;;;;6257037;23;20004;-73
2023/10/28 07:40:03;;;;;;;4.50;1.58;;;;;;;;;;6246393;23;20012;-75
2023/10/28 07:42:34;;;;;;;4.40;1.60;;;;;;;;;;6252812;23;20017;-74
2023/10/28 07:45:05;;;;;;;5.53;1.67;;;;;;;;;;6247245;23;20415;-75
2023/10/28 07:47:35;;;;;;;5.10;1.75;;;;;;;;;;6247329;23;20269;-74
2023/10/28 07:50:05;;;;;;;5.45;1.60;;;;;;;;;;6247679;23;20012;-74
2023/10/28 07:52:35;;;;;;;7.32;1.77;;;;;;;;;;6246475;23;20019;-77
2023/10/28 07:55:07;;;;;;;3.58;1.65;;;;;;;;;;6247555;23;20023;-75
2023/10/28 07:57:37;;;;;;;;;;;;;;;;;;6258096;23;20445;-74
2023/10/28 08:00:11;;;;;;;3.85;1.50;;;;;;;;;;6246339;23;19922;-75
2023/10/28 08:02:47;;;;;;;2.65;1.30;;;;;;;;;;6257315;23;20008;-75
2023/10/28 08:05:17;;;;;;;2.25;0.60;;;;;;;;;;6246278;23;20027;-77
2023/10/28 08:07:48;;;;;;;1.15;0.40;;;;;;;;;;6247725;23;20023;-77
2023/10/28 08:10:22;;;;;;;0.38;0.20;;;;;;;;;;6256941;23;20019;-76
2023/10/28 08:12:53;;;;;;;1.45;0.65;;;;;;;;;;6256513;23;20008;-75
2023/10/28 08:15:29;;;;;;;1.45;0.40;;;;;;;;;;6256225;23;20015;-75
2023/10/28 08:17:59;;;;;;;1.00;0.30;;;;;;;;;;6244551;23;20008;-75
2023/10/28 08:20:29;;;;;;;0.40;0.22;;;;;;;;;;6246321;23;20435;-75
2023/10/28 08:23:00;;;;;;;2.22;0.30;;;;;;;;;;6246598;23;20423;-75
2023/10/28 08:25:31;;;;;;;0.70;0.20;;;;;;;;;;6245870;23;20016;-75
2023/10/28 08:28:02;;;;;;;0.85;0.20;;;;;;;;;;6256630;23;20008;-75
2023/10/28 08:30:35;;;;;;;1.20;0.40;;;;;;;;;;6256666;23;20008;-75
2023/10/28 08:33:05;;;;;;;0.77;0.20;;;;;;;;;;6256746;23;20465;-73
2023/10/28 08:35:37;;;;;;;1.92;0.43;;;;;;;;;;6256108;23;20004;-74
2023/10/28 08:38:07;;;;;;;1.48;0.35;;;;;;;;;;6246156;23;20016;-75
2023/10/28 08:40:44;;;;;;;2.05;0.52;;;;;;;;;;6246707;23;20019;-77
2023/10/28 08:43:17;;;;;;;0.50;0.30;;;;;;;;;;6246235;23;20040;-77
2023/10/28 08:45:48;;;;;;;0.68;0.30;;;;;;;;;;6246616;23;20015;-75
2023/10/28 08:48:20;;;;;;;1.75;0.30;;;;;;;;;;6256657;23;20008;-75
2023/10/28 08:51:00;;;;;;;3.50;0.25;;;;;;;;;;6256278;23;20008;-77
2023/10/28 08:53:34;;;;;;;1.88;0.30;;;;;;;;;;6257047;23;20447;-75
2023/10/28 08:56:05;;;;;;;0.90;0.25;;;;;;;;;;6256297;23;20033;-75
2023/10/28 08:58:37;;;;;;;0.38;0.20;;;;;;;;;;6256625;23;20004;-75
2023/10/28 09:01:08;;;;;;;3.85;0.50;;;;;;;;;;6245956;23;20023;-76
2023/10/28 09:03:41;;;;;;;1.17;0.30;;;;;;;;;;6230214;23;20019;-75
2023/10/28 09:06:11;;;;;;;0.85;0.40;;;;;;;;;;6256476;23;20015;-76
2023/10/28 09:08:41;;;;;;;2.22;0.32;;;;;;;;;;6245832;23;20008;-76
2023/10/28 09:11:12;;;;;;;2.15;0.30;;;;;;;;;;6245838;23;20015;-75
2023/10/28 09:13:47;;;;;;;2.05;0.30;;;;;;;;;;6256967;23;20012;-75
2023/10/28 09:16:18;;;;;;;3.05;0.45;;;;;;;;;;6256880;23;20012;-75
2023/10/28 09:18:49;;;;;;;0.70;0.30;;;;;;;;;;6256526;23;20027;-74
2023/10/28 09:21:20;;;;;;;0.75;0.30;;;;;;;;;;6246065;23;20012;-75
2023/10/28 09:23:51;;;;;;;1.38;0.20;;;;;;;;;;6218437;23;20019;-76
2023/10/28 09:26:22;;;;;;;2.28;0.30;;;;;;;;;;6246142;23;20016;-77
2023/10/28 09:28:52;;;;;;;1.42;0.20;;;;;;;;;;6245302;23;20019;-76
2023/10/28 09:31:28;;;;;;;3.47;0.60;;;;;;;;;;6217625;23;20466;-76
2023/10/28 09:33:58;;;;;;;5.30;0.50;;;;;;;;;;6255147;23;20015;-75
2023/10/28 09:36:29;;;;;;;2.13;0.50;;;;;;;;;;6245223;23;20012;-76
2023/10/28 09:39:00;;;;;;;2.33;0.65;;;;;;;;;;6255685;23;20019;-75
2023/10/28 09:41:32;;;;;;;2.97;0.50;;;;;;;;;;6256151;23;20005;-76
2023/10/28 09:44:03;;;;;;;1.30;0.55;;;;;;;;;;6246503;23;20011;-76
2023/10/28 09:46:35;;;;;;;2.83;0.47;;;;;;;;;;6255442;23;20067;-76
2023/10/28 09:49:09;;;;;;;1.23;0.30;;;;;;;;;;6216220;23;20016;-78
2023/10/28 09:51:40;;;;;;;3.00;0.52;;;;;;;;;;6255598;23;20008;-75
2023/10/28 09:54:19;;;;;;;2.95;0.70;;;;;;;;;;6255017;23;20459;-75
2023/10/28 09:56:52;;;;;;;2.45;0.63;;;;;;;;;;6217759;23;20008;-76
2023/10/28 09:59:24;;;;;;;2.45;0.60;;;;;;;;;;6255906;23;20014;-76
2023/10/28 10:02:14;;;;;;;1.45;0.43;;;;;;;;;;6255104;23;20498;-76
2023/10/28 10:05:02;;;;;;;0.38;0.20;;;;;;;;;;6255248;23;20314;-76
2023/10/28 10:07:33;;;;;;;1.73;0.30;;;;;;;;;;6255942;23;20478;-76
2023/10/28 10:10:15;;;;;;;0.75;0.40;;;;;;;;;;6255589;23;20008;-75
2023/10/28 10:12:54;;;;;;;1.40;0.20;;;;;;;;;;6253952;23;20009;-77
2023/10/28 10:15:24;;;;;;;1.15;0.43;;;;;;;;;;6229040;23;20442;-76
2023/10/28 10:17:57;;;;;;;0.90;0.30;;;;;;;;;;6245085;23;20012;-77
2023/10/28 10:20:28;;;;;;;2.35;0.60;;;;;;;;;;6254642;23;20011;-76
2023/10/28 10:23:03;;;;;;;1.10;0.30;;;;;;;;;;6254750;23;20004;-77
2023/10/28 10:25:40;;;;;;;0.30;0.10;;;;;;;;;;6255685;23;20423;-76
2023/10/28 10:28:23;;;;;;;2.05;0.40;;;;;;;;;;6254979;23;20021;-76
2023/10/28 10:30:59;;;;;;;1.45;0.50;;;;;;;;;;6217689;23;20028;-76
2023/10/28 10:33:32;;;;;;;1.02;0.30;;;;;;;;;;6255569;23;20011;-77
2023/10/28 10:36:17;;;;;;;1.75;0.28;;;;;;;;;;6217098;23;20012;-77
2023/10/28 10:38:47;;;;;;;0.60;0.28;;;;;;;;;;6254527;23;20011;-77
2023/10/28 10:41:29;;;;;;;0.60;0.35;;;;;;;;;;6256292;23;20460;-77
2023/10/28 10:44:24;;;;;;;0.73;0.20;;;;;;;;;;6245917;23;20008;-77
2023/10/28 10:46:58;;;;;;;0.40;0.28;;;;;;;;;;6219980;23;20012;-75
2023/10/28 10:49:32;;;;;;;0.50;0.30;;;;;;;;;;6256075;23;20008;-76
2023/10/28 10:52:04;;;;;;;1.02;0.30;;;;;;;;;;6255882;23;20004;-76
2023/10/28 10:54:38;;;;;;;2.15;0.60;;;;;;;;;;6255739;23;20391;-77
2023/10/28 10:57:09;;;;;;;1.13;0.38;;;;;;;;;;6255774;23;20037;-75
2023/10/28 10:59:39;;;;;;;1.67;0.95;;;;;;;;;;6256053;23;20108;-77
2023/10/28 11:02:11;;;;;;;0.95;0.40;;;;;;;;;;6246098;23;20019;-76
2023/10/28 11:04:43;;;;;;;1.83;0.40;;;;;;;;;;6255791;23;20012;-76
2023/10/28 11:07:13;;;;;;;1.80;0.45;;;;;;;;;;6256398;23;20008;-76
2023/10/28 11:09:43;;;;;;;0.82;0.30;;;;;;;;;;6245552;23;20027;-77
2023/10/28 11:12:13;;;;;;;3.05;0.40;;;;;;;;;;6219710;23;20023;-76
2023/10/28 11:14:43;;;;;;;1.17;0.55;;;;;;;;;;6246065;23;20323;-78
2023/10/28 11:17:14;;;;;;;1.42;0.63;;;;;;;;;;6245461;23;20427;-76
2023/10/28 11:19:50;;;;;;;2.28;0.82;;;;;;;;;;6217964;23;20008;-75
2023/10/28 11:22:21;;;;;;;2.03;0.70;;;;;;;;;;6255985;23;20011;-77
2023/10/28 11:24:58;;;;;;;1.27;0.55;;;;;;;;;;6245596;23;20004;-75
2023/10/28 11:27:28;;;;;;;3.00;0.63;;;;;;;;;;6256068;23;20296;-76
2023/10/28 11:30:03;;;;;;;1.75;0.80;;;;;;;;;;6255566;23;20015;-75
2023/10/28 11:32:40;;;;;;;3.55;0.60;;;;;;;;;;6219072;23;20108;-75
2023/10/28 11:35:14;;;;;;;1.02;0.50;;;;;;;;;;6255941;23;20012;-76
2023/10/28 11:37:44;;;;;;;2.85;0.80;;;;;;;;;;6255673;23;20008;-75
2023/10/28 11:40:14;;;;;;;2.17;1.00;;;;;;;;;;6245636;23;20427;-75
2023/10/28 11:42:44;;;;;;;1.75;0.50;;;;;;;;;;6245910;23;20016;-75
2023/10/28 11:45:16;;;;;;;2.05;0.80;;;;;;;;;;6255873;23;20012;-75
2023/10/28 11:47:46;;;;;;;1.73;0.60;;;;;;;;;;6245353;23;20008;-75
2023/10/28 11:50:25;;;;;;;18.48;10.65;;;;;;;;;;6243385;23;20502;-76
2023/10/28 11:52:56;;;;;;;9.25;4.28;;;;;;;;;;6254685;23;20012;-76
2023/10/28 11:55:26;;;;;;;3.47;1.63;;;;;;;;;;6246068;23;20019;-75
2023/10/28 11:57:58;;;;;;;6.82;3.50;;;;;;;;;;6229775;23;20538;-76
2023/10/28 12:00:35;;;;;;;2.95;1.40;;;;;;;;;;6217090;23;20331;-75
2023/10/28 12:03:05;;;;;;;3.55;1.50;;;;;;;;;;6255183;23;20019;-75
2023/10/28 12:05:36;;;;;;;3.50;1.45;;;;;;;;;;6245317;23;20326;-76
2023/10/28 12:08:06;;;;;;;2.70;1.05;;;;;;;;;;6246224;23;20020;-75
2023/10/28 12:10:38;;;;;;;3.97;1.30;;;;;;;;;;6245559;23;20004;-75
2023/10/28 12:13:08;;;;;;;2.53;0.98;;;;;;;;;;6218488;23;20012;-75
2023/10/28 12:15:39;;;;;;;2.50;1.08;;;;;;;;;;6245195;23;20016;-74
2023/10/28 12:18:09;;;;;;;4.55;1.10;;;;;;;;;;6245739;23;20019;-76
2023/10/28 12:20:39;;;;;;;2.65;1.10;;;;;;;;;;6245742;23;20439;-75
2023/10/28 12:23:13;;;;;;;2.70;1.10;;;;;;;;;;6246031;23;20023;-76
2023/10/28 12:25:43;;;;;;;4.13;1.40;;;;;;;;;;6258385;23;20008;-74
2023/10/28 12:28:13;;;;;;;10.40;5.97;;;;;;;;;;6257000;23;20012;-78
2023/10/28 12:30:43;;;;;;;21.20;12.32;;;;;;;;;;6231703;23;20020;-80
2023/10/28 12:33:13;;;;;;;26.13;11.20;;;;;;;;;;6253795;23;20027;-79
2023/10/28 12:35:42;;;;;;;5.13;1.48;;;;;;;;;;6246779;23;20019;-79
2023/10/28 12:38:14;;;;;;;5.80;1.70;;;;;;;;;;6231084;23;20012;-80
2023/10/28 12:40:44;;;;;;;2.30;1.00;;;;;;;;;;6200512;22;20000;-80
2023/10/28 12:43:14;;;;;;;3.50;1.30;;;;;;;;;;6253128;23;20016;-79
2023/10/28 12:45:44;;;;;;;3.40;1.20;;;;;;;;;;6247266;23;20021;-79
2023/10/28 12:48:14;;;;;;;2.78;1.15;;;;;;;;;;6219072;23;20016;-79
2023/10/28 12:50:44;;;;;;;4.63;1.52;;;;;;;;;;6246835;23;20438;-79
2023/10/28 12:53:31;;;;;;;4.68;1.58;;;;;;;;;;6256951;23;20004;-81
2023/10/28 12:56:04;;;;;;;4.60;1.50;;;;;;;;;;6192354;23;20016;-80
2023/10/28 12:58:52;;;;;;;4.07;1.65;;;;;;;;;;6256239;23;20012;-79
2023/10/28 13:01:25;;;;;;;3.25;1.55;;;;;;;;;;6255653;23;20005;-79
2023/10/28 13:04:13;;;;;;;6.15;2.83;;;;;;;;;;6196151;23;20454;-81
2023/10/28 13:06:49;;;;;;;4.90;2.40;;;;;;;;;;6217736;23;20012;-81
2023/10/28 13:09:20;;;;;;;3.83;1.40;;;;;;;;;;6183522;23;20013;-81
2023/10/28 13:11:56;;;;;;;5.63;1.40;;;;;;;;;;6188308;23;20024;-81
2023/10/28 13:14:27;;;;;;;4.18;1.85;;;;;;;;;;6180431;23;20436;-81
2023/10/28 13:16:58;;;;;;;6.07;2.38;;;;;;;;;;6192081;23;20009;-81
2023/10/28 13:19:29;;;;;;;4.93;2.10;;;;;;;;;;6191702;23;20009;-82
2023/10/28 13:22:00;;;;;;;3.70;1.40;;;;;;;;;;6181534;23;20380;-81
2023/10/28 13:24:31;;;;;;;6.68;2.17;;;;;;;;;;6192537;23;20016;-80
2023/10/28 13:27:03;;;;;;;7.47;1.90;;;;;;;;;;6192263;23;20484;-79
2023/10/28 13:29:33;;;;;;;4.25;1.70;;;;;;;;;;6191767;23;20024;-78
2023/10/28 13:32:06;;;;;;;3.88;1.60;;;;;;;;;;6180322;23;20025;-79
2023/10/28 13:34:38;;;;;;;3.60;1.50;;;;;;;;;;6189567;23;20013;-78
2023/10/28 13:37:12;;;;;;;3.25;1.52;;;;;;;;;;6167875;23;20020;-80
2023/10/28 13:39:43;;;;;;;4.47;1.63;;;;;;;;;;6157528;23;20009;-79
2023/10/28 13:42:13;;;;;;;3.30;1.40;;;;;;;;;;6134025;23;20025;-79
2023/10/28 13:44:44;;;;;;;3.50;1.33;;;;;;;;;;6182607;23;20020;-79
2023/10/28 13:47:14;;;;;;;3.60;1.48;;;;;;;;;;6153992;23;20009;-78
2023/10/28 13:49:48;;;;;;;4.88;1.60;;;;;;;;;;6193226;23;20009;-79
2023/10/28 13:52:20;;;;;;;3.25;1.50;;;;;;;;;;6160054;23;20020;-79
2023/10/28 13:54:53;;;;;;;4.50;1.73;;;;;;;;;;6218425;23;20015;-79
2023/10/28 13:57:24;;;;;;;2.55;1.30;;;;;;;;;;6194306;23;20431;-79
2023/10/28 13:59:56;;;;;;;3.30;1.10;;;;;;;;;;6194143;23;20016;-80
2023/10/28 14:02:26;;;;;;;3.33;1.40;;;;;;;;;;6229509;23;20009;-78
2023/10/28 14:04:59;;;;;;;3.60;1.38;;;;;;;;;;6255846;23;20008;-79
2023/10/28 14:07:30;;;;;;;3.67;1.10;;;;;;;;;;6255609;23;20005;-78
2023/10/28 14:09:59;;;;;;;3.50;1.23;;;;;;;;;;6245537;23;20013;-78
2023/10/28 14:12:31;;;;;;;2.28;1.20;;;;;;;;;;6219270;23;20335;-78
2023/10/28 14:15:03;;;;;;;3.33;1.25;;;;;;;;;;6219048;23;20017;-78
2023/10/28 14:17:34;;;;;;;2.90;1.17;;;;;;;;;;6257822;23;20023;-78
2023/10/28 14:20:05;;;;;;;2.20;0.90;;;;;;;;;;6220477;23;20015;-78
2023/10/28 14:22:36;;;;;;;1.92;0.98;;;;;;;;;;6248155;23;20015;-78
2023/10/28 14:25:13;;;;;;;3.05;1.20;;;;;;;;;;6258555;23;20019;-78
2023/10/28 14:27:44;;;;;;;1.98;0.88;;;;;;;;;;6257658;23;20016;-79
2023/10/28 14:30:14;;;;;;;3.75;0.88;;;;;;;;;;6247479;23;20009;-79
2023/10/28 14:32:44;;;;;;;3.72;0.80;;;;;;;;;;6247291;23;20035;-78
2023/10/28 14:35:15;;;;;;;3.53;0.90;;;;;;;;;;6257976;23;20016;-79
2023/10/28 14:37:46;;;;;;;2.55;1.17;;;;;;;;;;6258037;23;20012;-78
2023/10/28 14:40:16;;;;;;;1.77;0.75;;;;;;;;;;6247383;23;20012;-78
2023/10/28 14:42:47;;;;;;;2.17;0.90;;;;;;;;;;6247769;22;20019;-79
2023/10/28 14:45:17;;;;;;;2.05;0.80;;;;;;;;;;6221814;23;20016;-79
2023/10/28 14:47:47;;;;;;;2.60;0.82;;;;;;;;;;6247912;23;20323;-78
2023/10/28 14:50:18;;;;;;;1.52;0.77;;;;;;;;;;6247516;23;20016;-79
2023/10/28 14:52:48;;;;;;;2.13;0.63;;;;;;;;;;6258132;23;20008;-78
2023/10/28 14:55:18;;;;;;;3.50;1.25;;;;;;;;;;6247858;23;20019;-79
2023/10/28 14:57:48;;;;;;;1.70;0.80;;;;;;;;;;6246812;23;20465;-79
2023/10/28 15:00:38;;;;;;;1.90;0.70;;;;;;;;;;6236057;23;20442;-79
2023/10/28 15:03:08;;;;;;;5.32;1.80;;;;;;;;;;6218542;23;20331;-80
2023/10/28 15:05:44;;;;;;;6.00;2.65;;;;;;;;;;6257834;23;20008;-80
2023/10/28 15:08:15;;;;;;;6.00;2.95;;;;;;;;;;6257707;23;20024;-80
2023/10/28 15:10:46;;;;;;;5.53;1.58;;;;;;;;;;6247882;23;20019;-79
2023/10/28 15:13:18;;;;;;;3.85;2.00;;;;;;;;;;6257371;23;20008;-79
2023/10/28 15:15:48;;;;;;;2.35;0.82;;;;;;;;;;6246981;23;20304;-80
2023/10/28 15:18:19;;;;;;;1.45;0.60;;;;;;;;;;6246924;23;20019;-80
2023/10/28 15:20:49;;;;;;;1.88;0.70;;;;;;;;;;6246545;23;20016;-79
2023/10/28 15:23:19;;;;;;;2.22;0.70;;;;;;;;;;6246999;23;20019;-80
2023/10/28 15:25:49;;;;;;;6.93;2.80;;;;;;;;;;6246480;23;20012;-79
2023/10/28 15:28:19;;;;;;;2.10;0.98;;;;;;;;;;6247118;23;20019;-79
2023/10/28 15:30:49;;;;;;;3.58;0.93;;;;;;;;;;6246627;23;20439;-80
2023/10/28 15:33:19;;;;;;;9.20;3.45;;;;;;;;;;6246786;23;20012;-80
2023/10/28 15:35:49;;;;;;;40.45;15.63;;;;;;;;;;6246817;23;20011;-80
2023/10/28 15:38:19;;;;;;;7.32;2.83;;;;;;;;;;6247400;23;20432;-80
2023/10/28 15:41:01;;;;;;;3.25;1.30;;;;;;;;;;6247570;23;20012;-79